Doylestown, Pennsylvania
Current Conditions -  °F | °C
As of 7:54 PM on Tuesday 27 Jan 2015 (Local Time) from KDYL Reporting Station
Clear Clear  
Wind Chill: -14°   Ceiling: Unl
Heat Index: -6°   Visibility: 10mi
Dew Point: -13°   Wind: 15mph
Humidity: 60%   Direction: 330°NNW
Pressure: 29.79"   Gusts: 24mph
Location:  40.31°N, 75.13°W
Report Text: KDYL 280054Z AUTO 33013G21KT 10SM CLR M06/M13 A2979 RMK AO2 SLP097 T10611128
Loading
Personal Weather Stations






























Interactive Weather Map New forecast layout! Learn more

10-Day Weather Forecast

Advertisements
Track Severe Weather on mobile